sensor_id;sensor_type;location;lat;lon;timestamp;pressure;altitude;pressure_sealevel;temperature;humidity
75409;BME280;63979;55.644;37.734;2023-06-05T00:01:38;100605.59;;;9.88;60.46
75409;BME280;63979;55.644;37.734;2023-06-05T00:06:40;100593.78;;;9.77;59.60
75409;BME280;63979;55.644;37.734;2023-06-05T00:11:41;100587.19;;;9.84;58.86
75409;BME280;63979;55.644;37.734;2023-06-05T00:16:42;100597.47;;;10.07;58.30
75409;BME280;63979;55.644;37.734;2023-06-05T00:21:43;100589.53;;;10.23;58.03
75409;BME280;63979;55.644;37.734;2023-06-05T00:26:44;100605.53;;;10.39;57.28
75409;BME280;63979;55.644;37.734;2023-06-05T00:31:45;100554.75;;;10.24;57.16
75409;BME280;63979;55.644;37.734;2023-06-05T00:36:47;100597.97;;;10.62;55.54
75409;BME280;63979;55.644;37.734;2023-06-05T00:41:51;100598.00;;;10.78;55.62
75409;BME280;63979;55.644;37.734;2023-06-05T00:46:52;100599.28;;;10.71;56.04
75409;BME280;63979;55.644;37.734;2023-06-05T00:51:54;100588.66;;;10.70;55.28
75409;BME280;63979;55.644;37.734;2023-06-05T00:56:55;100613.31;;;10.90;54.90
75409;BME280;63979;55.644;37.734;2023-06-05T01:01:56;100596.44;;;10.90;55.21
75409;BME280;63979;55.644;37.734;2023-06-05T01:06:57;100595.06;;;10.83;55.26
75409;BME280;63979;55.644;37.734;2023-06-05T01:17:27;100599.88;;;10.92;55.24
75409;BME280;63979;55.644;37.734;2023-06-05T01:22:29;100600.28;;;11.00;54.44
75409;BME280;63979;55.644;37.734;2023-06-05T01:27:52;100543.09;;;10.73;54.62
75409;BME280;63979;55.644;37.734;2023-06-05T01:33:17;100592.63;;;10.94;54.88
75409;BME280;63979;55.644;37.734;2023-06-05T01:38:21;100596.38;;;11.06;54.54
75409;BME280;63979;55.644;37.734;2023-06-05T01:43:23;100589.75;;;11.13;54.76
75409;BME280;63979;55.644;37.734;2023-06-05T01:48:24;100574.31;;;11.18;54.70
75409;BME280;63979;55.644;37.734;2023-06-05T01:53:30;100607.50;;;11.14;54.91
75409;BME280;63979;55.644;37.734;2023-06-05T01:58:32;100556.09;;;10.94;54.84
75409;BME280;63979;55.644;37.734;2023-06-05T02:03:33;100552.50;;;10.80;54.95
75409;BME280;63979;55.644;37.734;2023-06-05T02:08:34;100614.97;;;11.23;55.70
75409;BME280;63979;55.644;37.734;2023-06-05T02:13:39;100619.78;;;11.32;55.35
75409;BME280;63979;55.644;37.734;2023-06-05T02:18:44;100619.66;;;11.49;54.66
75409;BME280;63979;55.644;37.734;2023-06-05T02:23:49;100614.06;;;11.68;53.86
75409;BME280;63979;55.644;37.734;2023-06-05T02:28:52;100581.78;;;11.27;53.74
75409;BME280;63979;55.644;37.734;2023-06-05T02:33:55;100625.97;;;11.48;53.46
75409;BME280;63979;55.644;37.734;2023-06-05T02:38:56;100621.09;;;11.55;53.70
75409;BME280;63979;55.644;37.734;2023-06-05T02:43:57;100625.06;;;11.78;53.88
75409;BME280;63979;55.644;37.734;2023-06-05T02:48:58;100621.50;;;11.93;52.89
75409;BME280;63979;55.644;37.734;2023-06-05T02:53:59;100623.50;;;12.04;53.24
75409;BME280;63979;55.644;37.734;2023-06-05T02:59:01;100625.50;;;12.00;53.45
75409;BME280;63979;55.644;37.734;2023-06-05T03:04:03;100630.47;;;11.92;53.32
75409;BME280;63979;55.644;37.734;2023-06-05T03:09:04;100633.34;;;12.03;53.45
75409;BME280;63979;55.644;37.734;2023-06-05T03:14:07;100619.28;;;12.14;53.00
75409;BME280;63979;55.644;37.734;2023-06-05T03:19:08;100620.53;;;12.37;53.50
75409;BME280;63979;55.644;37.734;2023-06-05T03:24:11;100645.66;;;12.63;52.88
75409;BME280;63979;55.644;37.734;2023-06-05T03:29:16;100576.94;;;12.35;53.28
75409;BME280;63979;55.644;37.734;2023-06-05T03:34:17;100630.81;;;12.71;52.85
75409;BME280;63979;55.644;37.734;2023-06-05T03:39:19;100613.91;;;12.98;51.48
75409;BME280;63979;55.644;37.734;2023-06-05T03:44:21;100623.34;;;13.57;50.26
75409;BME280;63979;55.644;37.734;2023-06-05T03:49:24;100602.19;;;13.53;49.95
75409;BME280;63979;55.644;37.734;2023-06-05T03:54:27;100621.84;;;13.53;49.74
75409;BME280;63979;55.644;37.734;2023-06-05T03:59:28;100623.03;;;13.62;50.05
75409;BME280;63979;55.644;37.734;2023-06-05T04:04:29;100615.31;;;13.83;50.17
75409;BME280;63979;55.644;37.734;2023-06-05T04:09:31;100605.97;;;13.63;50.59
75409;BME280;63979;55.644;37.734;2023-06-05T04:14:32;100600.72;;;13.99;50.19
75409;BME280;63979;55.644;37.734;2023-06-05T04:19:33;100569.78;;;14.19;50.04
75409;BME280;63979;55.644;37.734;2023-06-05T04:24:34;100568.34;;;14.52;48.81
75409;BME280;63979;55.644;37.734;2023-06-05T04:29:35;100550.66;;;14.73;47.46
75409;BME280;63979;55.644;37.734;2023-06-05T04:34:36;100567.34;;;14.65;48.56
75409;BME280;63979;55.644;37.734;2023-06-05T04:39:38;100605.84;;;15.38;47.82
75409;BME280;63979;55.644;37.734;2023-06-05T04:44:38;100612.13;;;15.25;48.39
75409;BME280;63979;55.644;37.734;2023-06-05T04:49:40;100615.25;;;14.72;49.00
75409;BME280;63979;55.644;37.734;2023-06-05T04:54:41;100619.28;;;14.41;51.08
75409;BME280;63979;55.644;37.734;2023-06-05T04:59:43;100612.28;;;14.38;52.12
75409;BME280;63979;55.644;37.734;2023-06-05T05:04:44;100614.84;;;14.65;51.24
75409;BME280;63979;55.644;37.734;2023-06-05T05:09:45;100621.91;;;14.79;49.99
75409;BME280;63979;55.644;37.734;2023-06-05T05:14:46;100618.53;;;14.88;49.90
75409;BME280;63979;55.644;37.734;2023-06-05T05:19:47;100616.75;;;15.23;50.26
75409;BME280;63979;55.644;37.734;2023-06-05T05:24:48;100568.78;;;15.76;50.98
75409;BME280;63979;55.644;37.734;2023-06-05T05:29:49;100618.59;;;15.82;48.93
75409;BME280;63979;55.644;37.734;2023-06-05T05:34:51;100620.00;;;16.43;47.94
75409;BME280;63979;55.644;37.734;2023-06-05T05:39:52;100635.19;;;16.56;46.78
75409;BME280;63979;55.644;37.734;2023-06-05T05:44:53;100626.97;;;16.23;47.99
75409;BME280;63979;55.644;37.734;2023-06-05T05:49:54;100639.81;;;16.98;47.55
75409;BME280;63979;55.644;37.734;2023-06-05T05:54:55;100635.94;;;18.08;44.75
75409;BME280;63979;55.644;37.734;2023-06-05T05:59:58;100638.03;;;18.56;42.59
75409;BME280;63979;55.644;37.734;2023-06-05T06:04:59;100632.97;;;19.12;41.63
75409;BME280;63979;55.644;37.734;2023-06-05T06:10:04;100641.41;;;17.65;44.46
75409;BME280;63979;55.644;37.734;2023-06-05T06:15:05;100641.66;;;17.41;45.65
75409;BME280;63979;55.644;37.734;2023-06-05T06:20:07;100635.22;;;16.78;47.30
75409;BME280;63979;55.644;37.734;2023-06-05T06:25:11;100641.34;;;16.80;50.26
75409;BME280;63979;55.644;37.734;2023-06-05T06:30:13;100634.72;;;16.50;49.39
75409;BME280;63979;55.644;37.734;2023-06-05T06:35:13;100638.72;;;16.22;52.26
75409;BME280;63979;55.644;37.734;2023-06-05T06:40:14;100643.81;;;15.57;51.83
75409;BME280;63979;55.644;37.734;2023-06-05T06:45:15;100628.09;;;15.40;53.19
75409;BME280;63979;55.644;37.734;2023-06-05T06:50:16;100597.50;;;15.06;54.42
75409;BME280;63979;55.644;37.734;2023-06-05T06:55:17;100637.63;;;15.33;55.14
75409;BME280;63979;55.644;37.734;2023-06-05T07:00:18;100638.16;;;16.41;51.46
75409;BME280;63979;55.644;37.734;2023-06-05T07:05:21;100626.16;;;18.17;46.16
75409;BME280;63979;55.644;37.734;2023-06-05T07:10:23;100614.28;;;19.28;42.98
75409;BME280;63979;55.644;37.734;2023-06-05T07:15:24;100594.00;;;18.84;42.36
75409;BME280;63979;55.644;37.734;2023-06-05T07:20:25;100625.41;;;19.16;43.58
75409;BME280;63979;55.644;37.734;2023-06-05T07:25:26;100591.31;;;20.47;41.83
75409;BME280;63979;55.644;37.734;2023-06-05T07:30:28;100617.06;;;22.72;35.51
75409;BME280;63979;55.644;37.734;2023-06-05T07:35:29;100600.91;;;24.19;32.43
75409;BME280;63979;55.644;37.734;2023-06-05T07:40:30;100587.91;;;25.15;31.42
75409;BME280;63979;55.644;37.734;2023-06-05T07:45:31;100608.47;;;26.62;28.86
75409;BME280;63979;55.644;37.734;2023-06-05T07:50:32;100618.66;;;28.88;26.93
75409;BME280;63979;55.644;37.734;2023-06-05T07:55:33;100620.66;;;28.32;25.99
75409;BME280;63979;55.644;37.734;2023-06-05T08:00:34;100619.59;;;28.33;26.47
75409;BME280;63979;55.644;37.734;2023-06-05T08:05:35;100605.84;;;28.05;26.24
75409;BME280;63979;55.644;37.734;2023-06-05T08:10:37;100599.53;;;25.40;29.29
75409;BME280;63979;55.644;37.734;2023-06-05T08:15:38;100613.38;;;27.53;27.28
75409;BME280;63979;55.644;37.734;2023-06-05T08:20:39;100588.25;;;26.04;29.46
75409;BME280;63979;55.644;37.734;2023-06-05T08:25:41;100585.00;;;27.03;26.79
75409;BME280;63979;55.644;37.734;2023-06-05T08:30:42;100595.84;;;25.94;28.52
75409;BME280;63979;55.644;37.734;2023-06-05T08:35:45;100575.44;;;22.88;32.58
75409;BME280;63979;55.644;37.734;2023-06-05T08:40:46;100597.50;;;21.47;35.65
75409;BME280;63979;55.644;37.734;2023-06-05T08:45:51;100580.63;;;21.79;35.04
75409;BME280;63979;55.644;37.734;2023-06-05T08:50:56;100571.50;;;22.06;34.91
75409;BME280;63979;55.644;37.734;2023-06-05T08:55:59;100531.84;;;19.89;37.43
75409;BME280;63979;55.644;37.734;2023-06-05T09:01:00;100576.38;;;19.38;40.61
75409;BME280;63979;55.644;37.734;2023-06-05T09:06:02;100571.13;;;21.58;36.15
75409;BME280;63979;55.644;37.734;2023-06-05T09:11:25;100560.03;;;26.18;28.75
75409;BME280;63979;55.644;37.734;2023-06-05T09:16:42;100565.44;;;26.41;27.32
75409;BME280;63979;55.644;37.734;2023-06-05T09:21:54;100550.19;;;26.68;25.80
75409;BME280;63979;55.644;37.734;2023-06-05T09:27:00;100551.00;;;26.47;26.00
75409;BME280;63979;55.644;37.734;2023-06-05T09:32:07;100546.75;;;27.59;24.88
75409;BME280;63979;55.644;37.734;2023-06-05T09:37:09;100543.84;;;26.67;26.43
75409;BME280;63979;55.644;37.734;2023-06-05T09:42:10;100470.97;;;25.63;27.27
75409;BME280;63979;55.644;37.734;2023-06-05T09:47:12;100522.22;;;23.10;30.28
75409;BME280;63979;55.644;37.734;2023-06-05T09:52:14;100512.03;;;23.37;30.77
75409;BME280;63979;55.644;37.734;2023-06-05T09:57:15;100520.22;;;22.62;30.86
75409;BME280;63979;55.644;37.734;2023-06-05T10:02:19;100516.81;;;21.22;34.53
75409;BME280;63979;55.644;37.734;2023-06-05T10:07:21;100473.34;;;19.96;36.16
75409;BME280;63979;55.644;37.734;2023-06-05T10:12:23;100515.97;;;19.47;40.65
75409;BME280;63979;55.644;37.734;2023-06-05T10:17:28;100521.78;;;19.62;42.67
75409;BME280;63979;55.644;37.734;2023-06-05T10:22:29;100473.19;;;19.41;42.00
75409;BME280;63979;55.644;37.734;2023-06-05T10:49:17;100522.50;;;21.29;44.49
75409;BME280;63979;55.644;37.734;2023-06-05T10:59:26;100511.75;;;29.92;27.57
75409;BME280;63979;55.644;37.734;2023-06-05T11:15:08;100494.41;;;30.56;23.88
75409;BME280;63979;55.644;37.734;2023-06-05T11:25:28;100493.44;;;24.28;27.61
75409;BME280;63979;55.644;37.734;2023-06-05T11:30:32;100503.84;;;22.03;34.79
75409;BME280;63979;55.644;37.734;2023-06-05T11:35:35;100518.88;;;20.57;38.91
75409;BME280;63979;55.644;37.734;2023-06-05T11:40:37;100521.22;;;20.15;41.09
75409;BME280;63979;55.644;37.734;2023-06-05T11:45:40;100522.44;;;19.93;44.59
75409;BME280;63979;55.644;37.734;2023-06-05T11:51:04;100494.16;;;19.39;45.37
75409;BME280;63979;55.644;37.734;2023-06-05T11:56:14;100524.25;;;19.26;47.47
75409;BME280;63979;55.644;37.734;2023-06-05T12:01:19;100527.06;;;19.35;48.09
75409;BME280;63979;55.644;37.734;2023-06-05T12:06:23;100457.34;;;19.66;46.09
75409;BME280;63979;55.644;37.734;2023-06-05T12:11:26;100510.66;;;20.39;44.37
75409;BME280;63979;55.644;37.734;2023-06-05T12:16:36;100543.50;;;21.09;43.40
75409;BME280;63979;55.644;37.734;2023-06-05T12:21:38;100547.50;;;20.69;42.55
75409;BME280;63979;55.644;37.734;2023-06-05T12:26:56;100554.75;;;20.96;42.29
75409;BME280;63979;55.644;37.734;2023-06-05T12:31:59;100550.03;;;21.77;40.04
75409;BME280;63979;55.644;37.734;2023-06-05T12:37:00;100539.72;;;21.37;40.40
75409;BME280;63979;55.644;37.734;2023-06-05T12:42:02;100529.44;;;21.13;42.01
75409;BME280;63979;55.644;37.734;2023-06-05T12:47:02;100516.47;;;21.87;40.08
75409;BME280;63979;55.644;37.734;2023-06-05T12:52:06;100511.47;;;22.34;38.53
75409;BME280;63979;55.644;37.734;2023-06-05T12:57:07;100523.47;;;22.65;39.24
75409;BME280;63979;55.644;37.734;2023-06-05T13:02:08;100519.72;;;22.66;37.42
75409;BME280;63979;55.644;37.734;2023-06-05T13:07:09;100514.91;;;21.84;36.95
75409;BME280;63979;55.644;37.734;2023-06-05T13:12:13;100511.28;;;22.01;36.82
75409;BME280;63979;55.644;37.734;2023-06-05T13:17:14;100513.84;;;22.37;35.91
75409;BME280;63979;55.644;37.734;2023-06-05T13:22:16;100494.63;;;23.05;34.73
75409;BME280;63979;55.644;37.734;2023-06-05T13:27:17;100503.00;;;23.28;34.68
75409;BME280;63979;55.644;37.734;2023-06-05T13:32:19;100511.59;;;21.98;36.42
75409;BME280;63979;55.644;37.734;2023-06-05T13:37:20;100500.81;;;21.55;37.22
75409;BME280;63979;55.644;37.734;2023-06-05T13:42:21;100494.88;;;21.59;37.29
75409;BME280;63979;55.644;37.734;2023-06-05T13:47:22;100483.38;;;21.65;37.81
75409;BME280;63979;55.644;37.734;2023-06-05T13:52:23;100442.91;;;21.54;37.80
75409;BME280;63979;55.644;37.734;2023-06-05T13:57:24;100490.34;;;21.94;37.04
75409;BME280;63979;55.644;37.734;2023-06-05T14:02:25;100475.66;;;22.13;36.94
75409;BME280;63979;55.644;37.734;2023-06-05T14:07:26;100482.81;;;22.14;36.76
75409;BME280;63979;55.644;37.734;2023-06-05T14:12:27;100484.91;;;21.94;37.10
75409;BME280;63979;55.644;37.734;2023-06-05T14:17:28;100475.88;;;21.59;38.24
75409;BME280;63979;55.644;37.734;2023-06-05T14:22:29;100468.88;;;20.95;37.25
75409;BME280;63979;55.644;37.734;2023-06-05T14:27:30;100479.25;;;20.64;37.20
75409;BME280;63979;55.644;37.734;2023-06-05T14:32:31;100452.00;;;19.83;38.10
75409;BME280;63979;55.644;37.734;2023-06-05T14:37:32;100456.72;;;20.09;37.83
75409;BME280;63979;55.644;37.734;2023-06-05T14:42:33;100455.59;;;19.18;39.19
75409;BME280;63979;55.644;37.734;2023-06-05T14:47:34;100446.19;;;19.22;39.48
75409;BME280;63979;55.644;37.734;2023-06-05T14:52:36;100428.00;;;19.51;39.16
75409;BME280;63979;55.644;37.734;2023-06-05T14:57:37;100445.34;;;19.12;37.78
75409;BME280;63979;55.644;37.734;2023-06-05T15:02:38;100449.63;;;18.66;39.24
75409;BME280;63979;55.644;37.734;2023-06-05T15:07:40;100453.91;;;18.78;40.08
75409;BME280;63979;55.644;37.734;2023-06-05T15:12:41;100451.84;;;18.61;39.59
75409;BME280;63979;55.644;37.734;2023-06-05T15:17:42;100457.44;;;18.69;39.52
75409;BME280;63979;55.644;37.734;2023-06-05T15:22:45;100454.47;;;18.91;39.15
75409;BME280;63979;55.644;37.734;2023-06-05T15:27:45;100454.97;;;19.33;38.60
75409;BME280;63979;55.644;37.734;2023-06-05T15:32:48;100460.16;;;18.98;39.50
75409;BME280;63979;55.644;37.734;2023-06-05T15:37:49;100469.41;;;19.15;39.64
75409;BME280;63979;55.644;37.734;2023-06-05T15:43:17;100468.97;;;19.19;39.66
75409;BME280;63979;55.644;37.734;2023-06-05T15:48:19;100464.56;;;18.99;39.58
75409;BME280;63979;55.644;37.734;2023-06-05T15:53:21;100470.84;;;19.09;41.11
75409;BME280;63979;55.644;37.734;2023-06-05T15:58:22;100467.53;;;19.06;40.33
75409;BME280;63979;55.644;37.734;2023-06-05T16:03:23;100467.16;;;19.10;40.92
75409;BME280;63979;55.644;37.734;2023-06-05T16:08:24;100465.56;;;19.17;40.12
75409;BME280;63979;55.644;37.734;2023-06-05T16:13:25;100458.53;;;19.34;39.81
75409;BME280;63979;55.644;37.734;2023-06-05T16:18:26;100462.09;;;19.35;39.58
75409;BME280;63979;55.644;37.734;2023-06-05T16:23:27;100470.13;;;19.17;40.62
75409;BME280;63979;55.644;37.734;2023-06-05T16:28:28;100468.72;;;18.84;40.90
75409;BME280;63979;55.644;37.734;2023-06-05T16:33:29;100477.09;;;18.71;41.30
75409;BME280;63979;55.644;37.734;2023-06-05T16:38:30;100464.66;;;18.39;41.82
75409;BME280;63979;55.644;37.734;2023-06-05T16:43:31;100463.75;;;18.29;42.47
75409;BME280;63979;55.644;37.734;2023-06-05T16:48:32;100469.72;;;18.14;43.10
75409;BME280;63979;55.644;37.734;2023-06-05T16:53:33;100471.56;;;18.13;43.48
75409;BME280;63979;55.644;37.734;2023-06-05T16:58:34;100461.66;;;17.93;43.73
75409;BME280;63979;55.644;37.734;2023-06-05T17:03:35;100446.56;;;17.81;44.48
75409;BME280;63979;55.644;37.734;2023-06-05T17:08:36;100462.59;;;17.72;46.19
75409;BME280;63979;55.644;37.734;2023-06-05T17:13:37;100417.97;;;17.27;46.11
75409;BME280;63979;55.644;37.734;2023-06-05T17:18:38;100466.50;;;17.38;45.29
75409;BME280;63979;55.644;37.734;2023-06-05T17:23:39;100466.69;;;17.25;47.01
75409;BME280;63979;55.644;37.734;2023-06-05T17:28:40;100463.13;;;17.04;48.25
75409;BME280;63979;55.644;37.734;2023-06-05T17:33:41;100477.03;;;16.88;48.75
75409;BME280;63979;55.644;37.734;2023-06-05T17:38:42;100470.38;;;16.71;49.18
75409;BME280;63979;55.644;37.734;2023-06-05T17:43:43;100474.56;;;16.53;50.87
75409;BME280;63979;55.644;37.734;2023-06-05T17:48:44;100458.22;;;16.34;52.17
75409;BME280;63979;55.644;37.734;2023-06-05T17:53:45;100486.03;;;16.23;54.15
75409;BME280;63979;55.644;37.734;2023-06-05T17:58:46;100479.69;;;16.13;52.36
75409;BME280;63979;55.644;37.734;2023-06-05T18:03:48;100480.66;;;16.12;52.70
75409;BME280;63979;55.644;37.734;2023-06-05T18:08:49;100480.41;;;15.93;53.59
75409;BME280;63979;55.644;37.734;2023-06-05T18:13:50;100493.66;;;15.84;52.30
75409;BME280;63979;55.644;37.734;2023-06-05T18:18:52;100500.75;;;15.85;52.63
75409;BME280;63979;55.644;37.734;2023-06-05T18:23:53;100499.66;;;15.77;52.41
75409;BME280;63979;55.644;37.734;2023-06-05T18:28:54;100500.25;;;15.69;53.19
75409;BME280;63979;55.644;37.734;2023-06-05T18:33:55;100506.88;;;15.65;53.40
75409;BME280;63979;55.644;37.734;2023-06-05T18:38:56;100513.03;;;15.54;53.67
75409;BME280;63979;55.644;37.734;2023-06-05T18:43:57;100520.38;;;15.52;52.47
75409;BME280;63979;55.644;37.734;2023-06-05T18:49:00;100515.13;;;15.51;52.15
75409;BME280;63979;55.644;37.734;2023-06-05T18:54:01;100526.72;;;15.40;52.35
75409;BME280;63979;55.644;37.734;2023-06-05T18:59:02;100520.66;;;15.25;51.65
75409;BME280;63979;55.644;37.734;2023-06-05T19:04:03;100515.28;;;15.25;50.17
75409;BME280;63979;55.644;37.734;2023-06-05T19:09:04;100530.47;;;15.26;49.96
75409;BME280;63979;55.644;37.734;2023-06-05T19:14:06;100524.31;;;15.13;50.50
75409;BME280;63979;55.644;37.734;2023-06-05T19:19:07;100527.84;;;15.14;49.54
75409;BME280;63979;55.644;37.734;2023-06-05T19:24:08;100537.88;;;15.12;49.52
75409;BME280;63979;55.644;37.734;2023-06-05T19:29:09;100538.97;;;15.09;49.29
75409;BME280;63979;55.644;37.734;2023-06-05T19:34:10;100540.28;;;15.04;49.97
75409;BME280;63979;55.644;37.734;2023-06-05T19:39:13;100548.72;;;14.99;49.90
75409;BME280;63979;55.644;37.734;2023-06-05T19:44:14;100535.94;;;14.90;50.36
75409;BME280;63979;55.644;37.734;2023-06-05T19:49:15;100539.09;;;14.84;50.21
75409;BME280;63979;55.644;37.734;2023-06-05T19:54:17;100492.56;;;14.59;50.53
75409;BME280;63979;55.644;37.734;2023-06-05T19:59:18;100554.81;;;14.77;51.41
75409;BME280;63979;55.644;37.734;2023-06-05T20:04:19;100546.06;;;14.62;51.66
75409;BME280;63979;55.644;37.734;2023-06-05T20:09:20;100554.16;;;14.50;52.12
75409;BME280;63979;55.644;37.734;2023-06-05T20:14:21;100557.81;;;14.36;52.64
75409;BME280;63979;55.644;37.734;2023-06-05T20:19:23;100558.91;;;14.21;53.52
75409;BME280;63979;55.644;37.734;2023-06-05T20:24:24;100562.06;;;14.02;54.33
75409;BME280;63979;55.644;37.734;2023-06-05T20:29:25;100566.38;;;13.92;54.48
75409;BME280;63979;55.644;37.734;2023-06-05T20:34:26;100571.41;;;13.84;53.77
75409;BME280;63979;55.644;37.734;2023-06-05T20:39:27;100569.69;;;13.83;54.91
75409;BME280;63979;55.644;37.734;2023-06-05T20:44:31;100565.28;;;13.69;55.48
75409;BME280;63979;55.644;37.734;2023-06-05T20:49:39;100572.81;;;13.64;55.25
75409;BME280;63979;55.644;37.734;2023-06-05T20:54:40;100581.63;;;13.66;54.42
75409;BME280;63979;55.644;37.734;2023-06-05T20:59:42;100583.13;;;13.70;54.17
75409;BME280;63979;55.644;37.734;2023-06-05T21:04:44;100577.09;;;13.79;55.09
75409;BME280;63979;55.644;37.734;2023-06-05T21:09:45;100590.41;;;13.68;55.28
75409;BME280;63979;55.644;37.734;2023-06-05T21:14:46;100591.88;;;13.47;55.69
75409;BME280;63979;55.644;37.734;2023-06-05T21:19:47;100593.16;;;13.41;55.70
75409;BME280;63979;55.644;37.734;2023-06-05T21:24:49;100586.72;;;13.31;56.03
75409;BME280;63979;55.644;37.734;2023-06-05T21:29:50;100602.69;;;13.32;56.44
75409;BME280;63979;55.644;37.734;2023-06-05T21:34:52;100589.91;;;13.23;56.28
75409;BME280;63979;55.644;37.734;2023-06-05T21:39:53;100596.56;;;13.30;55.77
75409;BME280;63979;55.644;37.734;2023-06-05T21:44:53;100604.41;;;13.33;55.52
75409;BME280;63979;55.644;37.734;2023-06-05T21:49:55;100561.59;;;13.05;56.83
75409;BME280;63979;55.644;37.734;2023-06-05T21:54:56;100561.13;;;12.86;57.06
75409;BME280;63979;55.644;37.734;2023-06-05T21:59:57;100602.63;;;12.93;57.77
75409;BME280;63979;55.644;37.734;2023-06-05T22:05:00;100604.34;;;12.94;58.23
75409;BME280;63979;55.644;37.734;2023-06-05T22:10:05;100588.19;;;12.81;57.90
75409;BME280;63979;55.644;37.734;2023-06-05T22:15:07;100595.66;;;12.90;57.96
75409;BME280;63979;55.644;37.734;2023-06-05T22:20:10;100588.78;;;12.86;57.74
75409;BME280;63979;55.644;37.734;2023-06-05T22:25:11;100589.25;;;12.78;58.48
75409;BME280;63979;55.644;37.734;2023-06-05T22:30:12;100591.78;;;12.67;58.89
75409;BME280;63979;55.644;37.734;2023-06-05T22:35:13;100590.13;;;12.52;59.55
75409;BME280;63979;55.644;37.734;2023-06-05T22:40:14;100535.94;;;12.06;60.28
75409;BME280;63979;55.644;37.734;2023-06-05T22:45:16;100597.78;;;12.30;60.69
75409;BME280;63979;55.644;37.734;2023-06-05T22:50:17;100600.09;;;12.22;61.36
75409;BME280;63979;55.644;37.734;2023-06-05T22:55:18;100597.22;;;12.10;61.22
75409;BME280;63979;55.644;37.734;2023-06-05T23:00:21;100591.47;;;12.02;61.59
75409;BME280;63979;55.644;37.734;2023-06-05T23:05:22;100598.28;;;11.94;62.56
75409;BME280;63979;55.644;37.734;2023-06-05T23:10:23;100588.13;;;11.84;62.56
75409;BME280;63979;55.644;37.734;2023-06-05T23:15:24;100601.00;;;11.78;63.28
75409;BME280;63979;55.644;37.734;2023-06-05T23:20:27;100583.19;;;11.63;63.30
75409;BME280;63979;55.644;37.734;2023-06-05T23:25:28;100591.78;;;11.68;63.20
75409;BME280;63979;55.644;37.734;2023-06-05T23:30:30;100607.06;;;11.66;63.48
75409;BME280;63979;55.644;37.734;2023-06-05T23:35:31;100606.41;;;11.62;63.78
75409;BME280;63979;55.644;37.734;2023-06-05T23:40:32;100607.81;;;11.53;64.01
75409;BME280;63979;55.644;37.734;2023-06-05T23:45:33;100602.00;;;11.47;64.62
75409;BME280;63979;55.644;37.734;2023-06-05T23:50:35;100610.09;;;11.45;64.86
75409;BME280;63979;55.644;37.734;2023-06-05T23:55:36;100607.69;;;11.41;64.95
